Time;durP1;ratioP1;P1;durP2;ratioP2;P2;SDS_P1;SDS_P2;PMS_P1;PMS_P2;Temp;Humidity;BMP_temperature;BMP_pressure;BME280_temperature;BME280_humidity;BME280_pressure;Samples;Min_cycle;Max_cycle;Signal;HPM_P1;HPM_P2
2023/10/10 00:02:28;;;;;;;;;;;17.20;99.90;;;;;;2624237;47;19947;-79
2023/10/10 00:04:59;;;;;;;;;;;17.20;99.90;;;;;;2624213;47;19965;-79
2023/10/10 00:07:35;;;;;;;;;;;17.10;99.90;;;;;;2624257;39;20396;-78
2023/10/10 00:10:04;;;;;;;;;;;17.10;99.90;;;;;;2624310;47;19965;-78
2023/10/10 00:12:36;;;;;;;;;;;17.10;99.90;;;;;;2623985;54;19943;-79
2023/10/10 00:15:23;;;;;;;;;;;17.10;99.90;;;;;;2625441;46;19986;-79
2023/10/10 00:17:59;;;;;;;;;;;17.00;99.90;;;;;;2626030;54;20440;-78
2023/10/10 00:20:35;;;;;;;;;;;16.90;99.90;;;;;;2625407;47;19947;-78
2023/10/10 00:23:10;;;;;;;;;;;16.90;99.90;;;;;;2625604;54;19939;-80
2023/10/10 00:25:42;;;;;;;;;;;16.90;99.90;;;;;;2625024;54;19957;-79
2023/10/10 00:28:21;;;;;;;;;;;16.90;99.90;;;;;;2625756;47;19945;-78
2023/10/10 00:30:53;;;;;;;;;;;16.80;99.90;;;;;;2625720;46;19953;-78
2023/10/10 00:33:23;;;;;;;;;;;16.90;99.90;;;;;;2625824;54;19947;-79
2023/10/10 00:35:53;;;;;;;;;;;16.80;99.90;;;;;;2625791;39;20462;-79
2023/10/10 00:38:24;;;;;;;;;;;16.70;99.90;;;;;;2625646;47;20590;-80
2023/10/10 00:40:56;;;;;;;;;;;16.80;99.90;;;;;;2624517;47;19946;-79
2023/10/10 00:43:26;;;;;;;;;;;17.60;99.90;;;;;;2626095;47;19947;-79
2023/10/10 00:46:04;;;;;;;;;;;16.60;99.90;;;;;;2624512;47;20514;-79
2023/10/10 00:48:38;;;;;;;;;;;16.60;99.90;;;;;;2626714;49;19998;-80
2023/10/10 00:51:10;;;;;;;;;;;16.50;99.90;;;;;;2629405;47;19927;-79
2023/10/10 00:53:44;;;;;;;;;;;16.50;99.90;;;;;;2623853;54;19939;-79
2023/10/10 00:56:16;;;;;;;;;;;16.50;99.90;;;;;;2622974;47;20000;-79
2023/10/10 00:58:48;;;;;;;;;;;16.40;99.90;;;;;;2625414;39;20509;-79
2023/10/10 01:01:20;;;;;;;;;;;16.40;99.90;;;;;;2625704;46;19939;-78
2023/10/10 01:03:50;;;;;;;;;;;16.30;99.90;;;;;;2625871;47;19938;-79
2023/10/10 01:06:24;;;;;;;;;;;16.30;99.90;;;;;;2624776;46;19939;-79
2023/10/10 01:08:59;;;;;;;;;;;17.00;99.90;;;;;;2626176;54;19951;-78
2023/10/10 01:11:29;;;;;;;;;;;16.30;99.90;;;;;;2625842;54;19946;-78
2023/10/10 01:14:00;;;;;;;;;;;16.20;99.90;;;;;;2627449;54;19938;-79
2023/10/10 01:16:33;;;;;;;;;;;16.10;99.90;;;;;;2625565;54;20644;-79
2023/10/10 01:19:04;;;;;;;;;;;16.10;99.90;;;;;;2625920;47;20452;-78
2023/10/10 01:21:43;;;;;;;;;;;16.10;99.90;;;;;;2625889;54;20073;-78
2023/10/10 01:24:17;;;;;;;;;;;16.10;99.90;;;;;;2626349;46;19966;-78
2023/10/10 01:26:50;;;;;;;;;;;16.10;99.90;;;;;;2625364;47;19945;-78
2023/10/10 01:29:25;;;;;;;;;;;16.10;99.90;;;;;;2626061;47;19927;-79
2023/10/10 01:31:58;;;;;;;;;;;16.10;99.90;;;;;;2625389;46;19991;-78
2023/10/10 01:34:43;;;;;;;;;;;16.10;99.90;;;;;;2625150;47;19945;-78
2023/10/10 01:37:27;;;;;;;;;;;16.00;99.90;;;;;;2625505;47;20025;-79
2023/10/10 01:40:00;;;;;;;;;;;16.00;99.90;;;;;;2626678;47;19973;-78
2023/10/10 01:42:37;;;;;;;;;;;16.00;99.90;;;;;;2626976;46;19950;-79
2023/10/10 01:45:09;;;;;;;;;;;16.00;99.90;;;;;;2627572;47;19965;-79
2023/10/10 01:47:39;;;;;;;;;;;15.90;99.90;;;;;;2624287;39;20515;-79
2023/10/10 01:50:12;;;;;;;;;;;15.90;99.90;;;;;;2626587;47;19977;-79
2023/10/10 01:52:46;;;;;;;;;;;15.80;99.90;;;;;;2623836;47;19958;-79
2023/10/10 01:55:17;;;;;;;;;;;15.80;99.90;;;;;;2625837;47;19977;-78
2023/10/10 01:57:48;;;;;;;;;;;15.90;99.90;;;;;;2626185;47;19946;-79
2023/10/10 02:00:26;;;;;;;;;;;15.80;99.90;;;;;;2624489;54;19953;-78
2023/10/10 02:02:58;;;;;;;;;;;15.70;99.90;;;;;;2626991;54;20064;-80
2023/10/10 02:05:43;;;;;;;;;;;15.60;99.90;;;;;;2626921;54;19946;-78
2023/10/10 02:08:17;;;;;;;;;;;15.60;99.90;;;;;;2625185;54;20033;-78
2023/10/10 02:10:50;;;;;;;;;;;15.60;99.90;;;;;;2627749;54;19954;-79
2023/10/10 02:13:22;;;;;;;;;;;15.50;99.90;;;;;;2625849;54;20026;-78
2023/10/10 02:15:52;;;;;;;;;;;15.50;99.90;;;;;;2624355;46;19949;-79
2023/10/10 02:18:38;;;;;;;;;;;15.50;99.90;;;;;;2624338;47;20481;-79
2023/10/10 02:21:09;;;;;;;;;;;15.50;99.90;;;;;;2624497;47;19939;-79
2023/10/10 02:23:44;;;;;;;;;;;15.50;99.90;;;;;;2624775;47;19947;-80
2023/10/10 02:26:23;;;;;;;;;;;15.40;99.90;;;;;;2627682;54;19950;-79
2023/10/10 05:25:24;;;;;;;;;;;14.50;99.90;;;;;;2616974;54;19938;-76
2023/10/10 05:27:58;;;;;;;;;;;14.40;99.90;;;;;;2616635;54;19953;-78
2023/10/10 05:30:39;;;;;;;;;;;14.50;99.90;;;;;;2619069;47;19950;-77
2023/10/10 05:33:09;;;;;;;;;;;14.50;99.90;;;;;;2619406;47;19969;-78
2023/10/10 05:35:40;;;;;;;;;;;14.50;99.90;;;;;;2616964;54;19947;-77
2023/10/10 05:38:10;;;;;;;;;;;14.50;99.90;;;;;;2608317;47;19946;-78
2023/10/10 05:40:43;;;;;;;;;;;14.50;99.90;;;;;;2609351;47;19947;-77
2023/10/10 05:43:15;;;;;;;;;;;15.00;99.90;;;;;;2607588;54;20067;-77
2023/10/10 05:45:45;;;;;;;;;;;14.50;99.90;;;;;;2611505;54;20446;-77
2023/10/10 05:48:15;;;;;;;;;;;14.50;99.90;;;;;;2607801;54;19947;-75
2023/10/10 05:50:44;;;;;;;;;;;14.40;99.90;;;;;;2606889;54;19946;-77
2023/10/10 05:53:16;;;;;;;;;;;14.50;99.90;;;;;;2606119;47;19953;-75
2023/10/10 05:55:52;;;;;;;;;;;14.50;99.90;;;;;;2606287;47;19951;-75
2023/10/10 05:58:23;;;;;;;;;;;15.60;99.90;;;;;;2606108;47;19954;-76
2023/10/10 06:00:53;;;;;;;;;;;14.40;99.90;;;;;;2606640;47;19946;-75
2023/10/10 06:03:25;;;;;;;;;;;14.50;99.90;;;;;;2608506;47;19959;-77
2023/10/10 06:05:56;;;;;;;;;;;14.40;99.90;;;;;;2611295;54;19953;-79
2023/10/10 06:08:27;;;;;;;;;;;14.50;99.90;;;;;;2611751;47;19991;-78
2023/10/10 06:11:00;;;;;;;;;;;14.50;99.90;;;;;;2607977;54;19977;-73
2023/10/10 06:13:29;;;;;;;;;;;14.50;99.90;;;;;;2608262;54;19946;-73
2023/10/10 06:16:07;;;;;;;;;;;14.50;99.90;;;;;;2607962;47;20450;-74
2023/10/10 06:18:41;;;;;;;;;;;14.90;99.90;;;;;;2606246;39;20146;-73
2023/10/10 06:21:11;;;;;;;;;;;14.50;99.90;;;;;;2606160;54;19958;-74
2023/10/10 06:23:42;;;;;;;;;;;14.50;99.90;;;;;;2605791;54;19991;-74
2023/10/10 06:26:15;;;;;;;;;;;14.60;99.90;;;;;;2606552;54;20378;-62
2023/10/10 06:28:48;;;;;;;;;;;14.50;99.90;;;;;;2606083;47;20072;-62
2023/10/10 06:31:19;;;;;;;;;;;14.60;99.90;;;;;;2604356;54;19947;-63
2023/10/10 06:33:56;;;;;;;;;;;14.60;99.90;;;;;;2604472;54;19946;-61
2023/10/10 06:36:37;;;;;;;;;;;14.60;99.90;;;;;;2605062;54;19939;-58
2023/10/10 06:39:32;;;;;;;;;;;14.70;99.90;;;;;;2604826;54;19947;-61
2023/10/10 06:42:05;;;;;;;;;;;14.70;99.90;;;;;;2605491;54;19976;-59
2023/10/10 06:44:35;;;;;;;;;;;14.80;99.90;;;;;;2606204;39;20361;-60
2023/10/10 06:47:11;;;;;;;;;;;14.80;99.90;;;;;;2605183;54;19981;-62
2023/10/10 06:49:56;;;;;;;;;;;14.80;99.90;;;;;;2605387;54;20000;-60
2023/10/10 06:52:29;;;;;;;;;;;14.90;99.90;;;;;;2606566;47;20373;-60
2023/10/10 06:55:05;;;;;;;;;;;14.90;99.90;;;;;;2605701;47;19962;-61
2023/10/10 06:57:41;;;;;;;;;;;15.00;99.90;;;;;;2605783;39;20200;-62
2023/10/10 07:00:20;;;;;;;;;;;15.10;99.90;;;;;;2610685;54;20519;-61
2023/10/10 07:02:53;;;;;;;;;;;15.10;99.90;;;;;;2610734;54;20060;-62
2023/10/10 07:05:26;;;;;;;;;;;14.90;99.90;;;;;;2611490;54;19950;-60
2023/10/10 07:07:59;;;;;;;;;;;15.30;99.90;;;;;;2609827;54;19947;-61
2023/10/10 07:10:36;;;;;;;;;;;14.70;99.90;;;;;;2610526;54;20454;-61
2023/10/10 07:13:12;;;;;;;;;;;15.30;99.90;;;;;;2611535;54;20509;-61
2023/10/10 07:15:42;;;;;;;;;;;15.30;99.90;;;;;;2612925;54;19950;-72
2023/10/10 07:18:14;;;;;;;;;;;15.40;99.90;;;;;;2608276;54;19954;-71
2023/10/10 07:23:36;;;;;;;;;;;15.40;99.90;;;;;;2607052;47;19950;-71
2023/10/10 07:26:18;;;;;;;;;;;15.40;99.90;;;;;;2606659;47;19970;-72
2023/10/10 07:28:53;;;;;;;;;;;15.50;99.90;;;;;;2606814;54;19953;-73
2023/10/10 07:31:24;;;;;;;;;;;15.50;99.90;;;;;;2605300;46;19946;-71
2023/10/10 07:34:03;;;;;;;;;;;15.40;99.90;;;;;;2606053;47;19946;-71
2023/10/10 07:36:33;;;;;;;;;;;15.60;99.90;;;;;;2606729;54;19982;-74
2023/10/10 07:41:47;;;;;;;;;;;15.50;99.90;;;;;;2606132;47;19950;-70
2023/10/10 07:44:22;;;;;;;;;;;15.50;99.90;;;;;;2606493;54;19950;-70
2023/10/10 07:49:34;;;;;;;;;;;15.60;99.90;;;;;;2608466;54;19958;-71
2023/10/10 07:52:04;;;;;;;;;;;15.60;99.90;;;;;;2609350;47;19957;-72
2023/10/10 07:54:38;;;;;;;;;;;15.70;99.90;;;;;;2610242;47;20450;-71
2023/10/10 07:57:17;;;;;;;;;;;15.70;99.90;;;;;;2609837;39;20393;-70
2023/10/10 07:59:49;;;;;;;;;;;15.70;99.90;;;;;;2609498;54;19951;-71
2023/10/10 08:02:24;;;;;;;;;;;15.70;99.90;;;;;;2606026;47;19946;-69
2023/10/10 08:04:55;;;;;;;;;;;15.70;99.90;;;;;;2607800;39;20014;-74
2023/10/10 08:07:26;;;;;;;;;;;15.70;99.90;;;;;;2607548;47;20744;-73
2023/10/10 08:10:13;;;;;;;;;;;15.70;99.90;;;;;;2612494;46;20623;-74
2023/10/10 08:12:43;;;;;;;;;;;15.70;99.90;;;;;;2611403;47;20007;-74
2023/10/10 08:15:24;;;;;;;;;;;15.70;99.90;;;;;;2608926;46;19950;-73
2023/10/10 08:17:58;;;;;;;;;;;15.70;99.90;;;;;;2607588;47;20014;-75
2023/10/10 08:23:14;;;;;;;;;;;15.80;99.90;;;;;;2610569;54;19957;-72
2023/10/10 08:25:44;;;;;;;;;;;15.90;99.90;;;;;;2608903;39;20389;-76
2023/10/10 08:28:13;;;;;;;;;;;16.00;99.90;;;;;;2608753;54;19951;-74
2023/10/10 08:30:46;;;;;;;;;;;16.10;99.90;;;;;;2608129;47;19946;-72
2023/10/10 08:33:15;;;;;;;;;;;16.20;99.90;;;;;;2606339;47;19986;-64
2023/10/10 08:35:46;;;;;;;;;;;16.20;99.90;;;;;;2607246;54;19973;-63
2023/10/10 08:38:19;;;;;;;;;;;16.30;99.90;;;;;;2606010;54;19958;-63
2023/10/10 08:40:57;;;;;;;;;;;16.40;99.90;;;;;;2605974;54;20003;-62
2023/10/10 08:43:28;;;;;;;;;;;16.50;99.90;;;;;;2610043;54;19950;-73
2023/10/10 08:46:04;;;;;;;;;;;16.60;99.90;;;;;;2605726;46;20741;-73
2023/10/10 08:48:35;;;;;;;;;;;16.70;99.90;;;;;;2607157;54;19950;-72
2023/10/10 08:51:06;;;;;;;;;;;16.70;99.90;;;;;;2606668;47;19960;-74
2023/10/10 08:53:38;;;;;;;;;;;16.80;99.90;;;;;;2607350;39;20678;-75
2023/10/10 08:56:09;;;;;;;;;;;16.90;99.90;;;;;;2606237;54;19950;-75
2023/10/10 08:58:39;;;;;;;;;;;17.10;99.90;;;;;;2606821;47;19950;-73
2023/10/10 09:01:11;;;;;;;;;;;17.10;99.90;;;;;;2606832;39;20243;-74
2023/10/10 09:03:45;;;;;;;;;;;17.30;99.90;;;;;;2606701;54;19952;-74
2023/10/10 09:06:19;;;;;;;;;;;17.30;99.90;;;;;;2607149;39;20407;-72
2023/10/10 09:08:52;;;;;;;;;;;17.40;99.90;;;;;;2606416;54;20570;-73
2023/10/10 09:11:23;;;;;;;;;;;18.20;99.90;;;;;;2613203;54;19946;-71
2023/10/10 09:13:53;;;;;;;;;;;17.50;99.90;;;;;;2614884;46;19976;-73
2023/10/10 09:16:38;;;;;;;;;;;17.60;99.90;;;;;;2614207;47;19962;-71
2023/10/10 09:19:11;;;;;;;;;;;17.60;99.90;;;;;;2612541;47;19946;-73
2023/10/10 09:21:50;;;;;;;;;;;17.80;99.90;;;;;;2606741;47;19954;-72
2023/10/10 09:24:29;;;;;;;;;;;17.80;99.90;;;;;;2606375;50;20442;-74
2023/10/10 09:27:10;;;;;;;;;;;18.80;99.90;;;;;;2607198;47;20505;-74
2023/10/10 09:29:47;;;;;;;;;;;18.00;99.90;;;;;;2606253;54;20915;-73
2023/10/10 09:32:17;;;;;;;;;;;18.20;99.90;;;;;;2606131;47;19950;-75
2023/10/10 09:34:51;;;;;;;;;;;18.30;99.90;;;;;;2608106;47;20038;-75
2023/10/10 09:37:29;;;;;;;;;;;18.40;99.90;;;;;;2606824;46;19946;-74
2023/10/10 09:39:59;;;;;;;;;;;18.40;99.90;;;;;;2608364;51;19962;-75
2023/10/10 09:42:44;;;;;;;;;;;18.50;99.90;;;;;;2606109;39;20141;-74
2023/10/10 09:45:27;;;;;;;;;;;18.70;99.90;;;;;;2607274;54;19986;-75
2023/10/10 09:47:56;;;;;;;;;;;18.60;99.90;;;;;;2606151;47;20740;-74
2023/10/10 09:50:45;;;;;;;;;;;18.70;99.90;;;;;;2611390;47;19962;-75
2023/10/10 09:53:23;;;;;;;;;;;18.90;99.90;;;;;;2606790;54;19951;-77
2023/10/10 09:56:01;;;;;;;;;;;19.00;99.90;;;;;;2608435;54;19965;-78
2023/10/10 09:58:41;;;;;;;;;;;19.00;99.90;;;;;;2608726;39;20365;-73
2023/10/10 10:01:22;;;;;;;;;;;19.40;99.90;;;;;;2606704;54;19953;-74
2023/10/10 10:03:59;;;;;;;;;;;19.20;99.90;;;;;;2612567;49;20003;-74
2023/10/10 10:06:37;;;;;;;;;;;19.20;99.90;;;;;;2611996;54;19945;-79
2023/10/10 10:09:45;;;;;;;;;;;19.20;99.90;;;;;;2609626;47;19984;-79
2023/10/10 10:12:33;;;;;;;;;;;19.20;99.90;;;;;;2606673;54;19971;-76
2023/10/10 10:15:12;;;;;;;;;;;19.30;99.90;;;;;;2607547;54;19958;-78
2023/10/10 10:17:48;;;;;;;;;;;19.40;99.90;;;;;;2607637;47;19969;-77
2023/10/10 10:20:25;;;;;;;;;;;19.60;99.90;;;;;;2611634;39;20028;-77
2023/10/10 10:23:00;;;;;;;;;;;20.00;99.90;;;;;;2610149;54;20855;-77
2023/10/10 10:25:32;;;;;;;;;;;19.90;99.90;;;;;;2609651;47;19946;-76
2023/10/10 10:28:10;;;;;;;;;;;20.10;99.90;;;;;;2608132;47;19947;-77
2023/10/10 10:30:53;;;;;;;;;;;20.20;99.90;;;;;;2610400;47;19969;-76
2023/10/10 10:33:24;;;;;;;;;;;20.40;99.90;;;;;;2607518;54;20520;-75
2023/10/10 10:36:16;;;;;;;;;;;20.50;99.90;;;;;;2608933;47;19946;-76
2023/10/10 10:41:42;;;;;;;;;;;20.80;99.90;;;;;;2609700;47;20450;-75
2023/10/10 10:44:12;;;;;;;;;;;20.80;99.90;;;;;;2609442;46;19954;-79
2023/10/10 10:46:47;;;;;;;;;;;20.70;99.90;;;;;;2611233;47;19946;-77
2023/10/10 10:49:22;;;;;;;;;;;20.80;99.90;;;;;;2607030;54;19954;-77
2023/10/10 10:52:07;;;;;;;;;;;20.90;99.90;;;;;;2606362;47;19946;-74
2023/10/10 10:54:41;;;;;;;;;;;21.00;99.90;;;;;;2606185;39;20365;-74
2023/10/10 10:57:27;;;;;;;;;;;21.10;99.90;;;;;;2606766;39;20335;-74
2023/10/10 11:00:25;;;;;;;;;;;21.10;99.90;;;;;;2597762;54;19969;-74
2023/10/10 11:02:59;;;;;;;;;;;21.20;99.90;;;;;;2605309;46;19962;-72
2023/10/10 11:05:30;;;;;;;;;;;21.30;99.90;;;;;;2605966;39;20292;-72
2023/10/10 11:08:11;;;;;;;;;;;21.40;99.90;;;;;;2605718;47;19954;-74
2023/10/10 11:10:53;;;;;;;;;;;21.40;99.90;;;;;;2606422;54;19946;-73
2023/10/10 11:13:24;;;;;;;;;;;21.60;99.90;;;;;;2606446;47;19947;-74
2023/10/10 11:16:10;;;;;;;;;;;21.60;99.90;;;;;;2604585;47;19947;-74
2023/10/10 11:18:41;;;;;;;;;;;21.60;99.90;;;;;;2605798;54;20042;-76
2023/10/10 11:24:29;;;;;;;;;;;21.80;99.90;;;;;;2605410;47;19946;-75
2023/10/10 11:27:21;;;;;;;;;;;21.90;99.90;;;;;;2606337;54;19939;-75
2023/10/10 11:30:00;;;;;;;;;;;22.00;99.90;;;;;;2608092;54;19952;-80
2023/10/10 11:33:16;;;;;;;;;;;22.00;99.90;;;;;;2610795;54;20427;-80
2023/10/10 11:36:01;;;;;;;;;;;22.10;99.90;;;;;;2622092;54;19939;-77
2023/10/10 11:38:55;;;;;;;;;;;21.20;99.90;;;;;;2619229;54;19947;-78
2023/10/10 11:41:50;;;;;;;;;;;20.90;99.90;;;;;;2619121;47;20033;-79
2023/10/10 11:44:33;;;;;;;;;;;22.20;99.90;;;;;;2618095;54;19957;-76
2023/10/10 11:47:27;;;;;;;;;;;22.30;99.90;;;;;;2619919;47;19947;-79
2023/10/10 11:50:05;;;;;;;;;;;21.70;99.90;;;;;;2618443;47;19939;-78
2023/10/10 11:52:38;;;;;;;;;;;22.20;99.90;;;;;;2617874;47;19947;-77
2023/10/10 11:55:35;;;;;;;;;;;22.20;99.90;;;;;;2618981;47;19954;-79
2023/10/10 11:58:17;;;;;;;;;;;22.20;99.90;;;;;;2618638;47;19947;-77
2023/10/10 12:01:06;;;;;;;;;;;22.30;99.90;;;;;;2619374;47;20038;-77
2023/10/10 12:04:20;;;;;;;;;;;22.40;99.90;;;;;;2618472;47;19962;-75
2023/10/10 12:06:55;;;;;;;;;;;22.40;99.90;;;;;;2618703;46;19943;-77
2023/10/10 12:09:38;;;;;;;;;;;22.40;99.90;;;;;;2618714;39;20093;-76
2023/10/10 12:12:30;;;;;;;;;;;22.30;99.90;;;;;;2617553;46;19973;-78
2023/10/10 12:15:01;;;;;;;;;;;22.30;99.90;;;;;;2618081;47;19946;-76
2023/10/10 12:17:31;;;;;;;;;;;22.40;99.90;;;;;;2618291;47;19938;-74
2023/10/10 12:20:04;;;;;;;;;;;22.40;99.90;;;;;;2618433;39;20390;-77
2023/10/10 12:22:34;;;;;;;;;;;22.50;99.90;;;;;;2617627;49;20038;-74
2023/10/10 12:25:04;;;;;;;;;;;22.60;99.90;;;;;;2615900;54;19946;-75
2023/10/10 12:27:34;;;;;;;;;;;22.60;99.90;;;;;;2616886;54;19938;-72
2023/10/10 12:30:04;;;;;;;;;;;22.70;99.90;;;;;;2616079;54;19939;-76
2023/10/10 12:32:34;;;;;;;;;;;22.70;99.90;;;;;;2616273;39;20145;-70
2023/10/10 12:35:10;;;;;;;;;;;22.80;99.90;;;;;;2616628;54;19945;-71
2023/10/10 12:37:43;;;;;;;;;;;22.90;99.90;;;;;;2617167;54;19947;-74
2023/10/10 12:40:14;;;;;;;;;;;23.00;99.90;;;;;;2617571;54;19953;-76
2023/10/10 12:42:44;;;;;;;;;;;23.10;99.90;;;;;;2616683;47;19946;-74
2023/10/10 12:45:14;;;;;;;;;;;23.30;99.90;;;;;;2618737;47;19954;-72
2023/10/10 12:47:44;;;;;;;;;;;23.40;99.90;;;;;;2617993;47;19954;-72
2023/10/10 12:50:16;;;;;;;;;;;23.60;99.90;;;;;;2618089;47;20461;-71
2023/10/10 12:52:57;;;;;;;;;;;23.70;99.90;;;;;;2616091;47;20446;-74
2023/10/10 12:55:27;;;;;;;;;;;23.90;99.90;;;;;;2616721;54;19946;-67
2023/10/10 12:57:58;;;;;;;;;;;24.10;99.90;;;;;;2615619;39;20322;-64
2023/10/10 13:00:33;;;;;;;;;;;24.20;99.90;;;;;;2616309;53;19957;-74
2023/10/10 13:03:06;;;;;;;;;;;24.20;99.90;;;;;;2616580;54;20042;-72
2023/10/10 13:05:39;;;;;;;;;;;24.20;99.90;;;;;;2617329;47;19969;-73
2023/10/10 13:08:09;;;;;;;;;;;24.20;99.90;;;;;;2616926;54;19993;-73
2023/10/10 13:10:39;;;;;;;;;;;24.10;99.90;;;;;;2616731;54;20017;-73
2023/10/10 13:13:10;;;;;;;;;;;24.10;99.90;;;;;;2616493;47;19938;-74
2023/10/10 13:18:25;;;;;;;;;;;24.10;99.90;;;;;;2617337;54;19957;-71
2023/10/10 13:21:00;;;;;;;;;;;24.00;99.90;;;;;;2617147;47;20441;-72
2023/10/10 13:23:30;;;;;;;;;;;23.80;99.90;;;;;;2616828;54;19954;-66
2023/10/10 13:26:00;;;;;;;;;;;23.80;99.90;;;;;;2617186;54;19946;-64
2023/10/10 13:28:29;;;;;;;;;;;23.70;99.90;;;;;;2617275;54;19946;-63
2023/10/10 13:31:02;;;;;;;;;;;23.70;99.90;;;;;;2616808;54;19946;-64
2023/10/10 13:33:31;;;;;;;;;;;23.70;99.90;;;;;;2616292;54;19970;-62
2023/10/10 13:36:04;;;;;;;;;;;23.60;99.90;;;;;;2616992;54;19947;-64
2023/10/10 13:38:34;;;;;;;;;;;23.50;99.90;;;;;;2617094;46;19969;-63
2023/10/10 13:41:08;;;;;;;;;;;23.40;99.90;;;;;;2616269;54;20497;-63
2023/10/10 13:43:41;;;;;;;;;;;23.40;99.90;;;;;;2616915;54;19969;-63
2023/10/10 13:46:10;;;;;;;;;;;23.20;99.90;;;;;;2616193;54;19950;-63
2023/10/10 13:48:40;;;;;;;;;;;23.20;99.90;;;;;;2617500;54;19972;-64
2023/10/10 13:51:13;;;;;;;;;;;23.10;99.90;;;;;;2617084;54;19939;-65
2023/10/10 13:53:44;;;;;;;;;;;23.10;99.90;;;;;;2617448;54;19947;-63
2023/10/10 13:56:16;;;;;;;;;;;23.10;99.90;;;;;;2616964;48;19971;-74
2023/10/10 13:58:48;;;;;;;;;;;23.00;99.90;;;;;;2616758;54;19946;-74
2023/10/10 14:01:29;;;;;;;;;;;23.00;99.90;;;;;;2616074;54;19946;-74
2023/10/10 14:04:01;;;;;;;;;;;23.00;99.90;;;;;;2616876;54;19945;-73
2023/10/10 14:06:45;;;;;;;;;;;23.00;99.90;;;;;;2617139;54;19965;-73
2023/10/10 14:09:21;;;;;;;;;;;23.00;99.90;;;;;;2616325;47;19954;-74
2023/10/10 14:11:52;;;;;;;;;;;23.00;99.90;;;;;;2616256;47;19938;-74
2023/10/10 14:14:23;;;;;;;;;;;23.00;99.90;;;;;;2616377;47;19950;-75
2023/10/10 14:16:53;;;;;;;;;;;23.00;99.90;;;;;;2616723;54;19953;-74
2023/10/10 14:19:24;;;;;;;;;;;23.10;99.90;;;;;;2620903;54;19946;-74
2023/10/10 14:21:56;;;;;;;;;;;23.10;99.90;;;;;;2616804;47;19946;-74
2023/10/10 14:24:26;;;;;;;;;;;23.10;99.90;;;;;;2615672;47;19939;-73
2023/10/10 14:26:59;;;;;;;;;;;23.10;99.90;;;;;;2617392;39;20365;-74
2023/10/10 14:29:40;;;;;;;;;;;23.20;99.90;;;;;;2617087;54;19971;-73
2023/10/10 14:32:10;;;;;;;;;;;23.20;99.90;;;;;;2616050;47;19947;-73
2023/10/10 14:34:55;;;;;;;;;;;23.30;99.90;;;;;;2616975;50;20012;-72
2023/10/10 14:37:27;;;;;;;;;;;23.30;99.90;;;;;;2618275;39;20437;-73
2023/10/10 14:40:17;;;;;;;;;;;23.40;99.90;;;;;;2621804;47;19939;-74
2023/10/10 14:42:46;;;;;;;;;;;23.60;99.90;;;;;;2621449;54;19954;-72
2023/10/10 14:45:16;;;;;;;;;;;25.10;99.90;;;;;;2620556;54;19966;-72
2023/10/10 14:47:46;;;;;;;;;;;27.70;99.90;;;;;;2617364;54;19947;-73
2023/10/10 14:50:16;;;;;;;;;;;30.40;99.90;;;;;;2616858;47;19946;-73
2023/10/10 14:52:53;;;;;;;;;;;32.60;99.90;;;;;;2612993;47;20099;-74
2023/10/10 14:55:27;;;;;;;;;;;34.50;99.90;;;;;;2616653;50;19995;-73
2023/10/10 14:57:58;;;;;;;;;;;36.00;99.90;;;;;;2616948;54;20524;-74
2023/10/10 15:00:28;;;;;;;;;;;37.10;99.90;;;;;;2616792;54;20037;-74
2023/10/10 15:02:58;;;;;;;;;;;37.90;99.90;;;;;;2616822;54;19972;-74
2023/10/10 15:05:28;;;;;;;;;;;38.40;99.90;;;;;;2616999;54;19987;-74
2023/10/10 15:08:00;;;;;;;;;;;38.80;99.90;;;;;;2616812;53;19958;-74
2023/10/10 15:10:30;;;;;;;;;;;39.20;99.90;;;;;;2617622;47;19947;-74
2023/10/10 15:13:00;;;;;;;;;;;39.50;99.90;;;;;;2617389;47;19987;-74
2023/10/10 15:15:31;;;;;;;;;;;39.70;98.30;;;;;;2617725;54;20456;-73
2023/10/10 15:18:03;;;;;;;;;;;39.60;98.00;;;;;;2617546;54;19946;-74
2023/10/10 15:20:33;;;;;;;;;;;39.30;99.80;;;;;;2617330;47;19946;-74
2023/10/10 15:23:06;;;;;;;;;;;38.80;99.90;;;;;;2616741;54;19947;-73
2023/10/10 15:25:35;;;;;;;;;;;37.90;99.50;;;;;;2617494;47;20449;-73
2023/10/10 15:28:07;;;;;;;;;;;36.60;99.90;;;;;;2617424;54;19939;-72
2023/10/10 15:30:40;;;;;;;;;;;35.40;99.90;;;;;;2616940;54;20557;-72
2023/10/10 15:33:10;;;;;;;;;;;34.10;99.90;;;;;;2615632;46;20038;-73
2023/10/10 15:35:41;;;;;;;;;;;32.70;99.90;;;;;;2617356;54;19950;-74
2023/10/10 15:38:14;;;;;;;;;;;32.50;99.90;;;;;;2616598;54;20485;-73
2023/10/10 15:40:43;;;;;;;;;;;30.40;99.90;;;;;;2617320;54;19945;-73
2023/10/10 15:43:13;;;;;;;;;;;29.40;99.90;;;;;;2617504;54;19947;-73
2023/10/10 15:46:00;;;;;;;;;;;28.60;99.90;;;;;;2616659;39;20189;-72
2023/10/10 15:48:30;;;;;;;;;;;27.90;99.90;;;;;;2617037;54;20021;-72
2023/10/10 15:51:00;;;;;;;;;;;27.30;99.90;;;;;;2617116;47;19996;-72
2023/10/10 15:53:32;;;;;;;;;;;25.70;99.90;;;;;;2616209;47;19970;-72
2023/10/10 15:56:11;;;;;;;;;;;26.40;99.90;;;;;;2617810;54;19946;-73
2023/10/10 15:58:43;;;;;;;;;;;25.90;99.90;;;;;;2617908;50;19946;-73
2023/10/10 16:01:14;;;;;;;;;;;25.50;99.90;;;;;;2616729;51;19945;-73
2023/10/10 16:03:47;;;;;;;;;;;25.10;99.90;;;;;;2617402;39;20341;-73
2023/10/10 16:06:18;;;;;;;;;;;24.80;99.90;;;;;;2617033;54;19939;-73
2023/10/10 16:08:52;;;;;;;;;;;24.50;99.90;;;;;;2616260;54;19958;-74
2023/10/10 16:11:21;;;;;;;;;;;24.20;99.90;;;;;;2615119;54;19950;-73
2023/10/10 16:13:51;;;;;;;;;;;24.00;99.90;;;;;;2615277;54;20446;-73
2023/10/10 16:16:21;;;;;;;;;;;23.70;99.90;;;;;;2614995;54;20442;-73
2023/10/10 16:18:50;;;;;;;;;;;23.40;99.90;;;;;;2617328;54;20434;-72
2023/10/10 16:21:20;;;;;;;;;;;23.20;99.90;;;;;;2616895;54;20364;-73
2023/10/10 16:23:54;;;;;;;;;;;23.00;99.90;;;;;;2618399;54;19950;-74
2023/10/10 16:26:24;;;;;;;;;;;22.80;99.90;;;;;;2617755;54;19974;-73
2023/10/10 16:28:54;;;;;;;;;;;22.70;99.90;;;;;;2617426;54;19958;-73
2023/10/10 16:31:29;;;;;;;;;;;22.50;99.90;;;;;;2616742;47;20569;-74
2023/10/10 16:34:02;;;;;;;;;;;22.30;99.90;;;;;;2616834;54;19962;-73
2023/10/10 16:36:31;;;;;;;;;;;22.10;99.90;;;;;;2617263;54;19947;-72
2023/10/10 16:39:06;;;;;;;;;;;22.00;99.90;;;;;;2615802;54;19954;-73
2023/10/10 16:41:36;;;;;;;;;;;21.90;99.90;;;;;;2616192;54;19938;-73
2023/10/10 16:44:08;;;;;;;;;;;21.70;99.90;;;;;;2617237;54;19996;-74
2023/10/10 16:46:38;;;;;;;;;;;21.50;99.90;;;;;;2616470;47;19950;-73
2023/10/10 16:49:11;;;;;;;;;;;21.40;99.90;;;;;;2617048;54;19951;-73
2023/10/10 16:51:41;;;;;;;;;;;21.30;99.90;;;;;;2615041;54;19946;-73
2023/10/10 16:54:13;;;;;;;;;;;21.10;99.90;;;;;;2616487;39;20358;-72
2023/10/10 16:56:43;;;;;;;;;;;21.00;99.90;;;;;;2617486;54;19938;-73
2023/10/10 16:59:14;;;;;;;;;;;20.90;99.90;;;;;;2616976;47;19981;-73
2023/10/10 17:01:44;;;;;;;;;;;20.80;99.90;;;;;;2616442;54;20049;-73
2023/10/10 17:04:14;;;;;;;;;;;20.70;99.90;;;;;;2616344;54;19953;-74
2023/10/10 17:06:49;;;;;;;;;;;20.60;99.90;;;;;;2617455;47;19962;-75
2023/10/10 17:09:23;;;;;;;;;;;20.40;99.90;;;;;;2617264;54;20034;-75
2023/10/10 17:11:53;;;;;;;;;;;20.30;99.90;;;;;;2617161;47;19969;-75
2023/10/10 17:14:22;;;;;;;;;;;20.20;99.90;;;;;;2616078;54;19952;-74
2023/10/10 17:16:53;;;;;;;;;;;20.10;99.90;;;;;;2616756;54;19957;-75
2023/10/10 17:19:22;;;;;;;;;;;20.00;99.90;;;;;;2616039;54;19938;-75
2023/10/10 17:21:52;;;;;;;;;;;20.00;99.90;;;;;;2617596;47;19951;-74
2023/10/10 17:24:25;;;;;;;;;;;19.80;99.90;;;;;;2614694;52;19946;-75
2023/10/10 17:26:55;;;;;;;;;;;19.70;99.90;;;;;;2616830;54;19950;-74
2023/10/10 17:29:26;;;;;;;;;;;19.70;99.90;;;;;;2617100;47;19946;-75
2023/10/10 17:31:56;;;;;;;;;;;19.60;99.90;;;;;;2616681;54;19958;-74
2023/10/10 17:34:32;;;;;;;;;;;19.50;99.90;;;;;;2616276;47;19946;-74
2023/10/10 17:37:08;;;;;;;;;;;19.40;99.90;;;;;;2617214;46;19946;-73
2023/10/10 17:39:40;;;;;;;;;;;19.30;99.90;;;;;;2617647;47;19939;-77
2023/10/10 17:42:14;;;;;;;;;;;19.20;99.90;;;;;;2617685;54;19975;-76
2023/10/10 17:44:44;;;;;;;;;;;19.20;99.90;;;;;;2618213;54;20509;-74
2023/10/10 17:47:15;;;;;;;;;;;19.20;99.90;;;;;;2616249;54;19947;-72
2023/10/10 17:49:44;;;;;;;;;;;19.10;99.90;;;;;;2617238;47;19946;-74
2023/10/10 17:52:14;;;;;;;;;;;19.00;99.90;;;;;;2617411;47;19965;-73
2023/10/10 17:54:48;;;;;;;;;;;19.00;99.90;;;;;;2616547;54;19947;-74
2023/10/10 17:57:21;;;;;;;;;;;18.90;99.90;;;;;;2616767;54;20453;-76
2023/10/10 17:59:52;;;;;;;;;;;18.80;99.90;;;;;;2617069;47;19946;-74
2023/10/10 18:02:22;;;;;;;;;;;18.70;99.90;;;;;;2616628;47;19946;-73
2023/10/10 18:04:53;;;;;;;;;;;18.70;99.90;;;;;;2617913;54;19962;-75
2023/10/10 18:07:24;;;;;;;;;;;18.60;99.90;;;;;;2618302;39;20334;-75
2023/10/10 18:09:56;;;;;;;;;;;18.70;99.90;;;;;;2616135;47;19981;-76
2023/10/10 18:12:27;;;;;;;;;;;18.50;99.90;;;;;;2617407;39;20372;-74
2023/10/10 18:14:57;;;;;;;;;;;18.50;99.90;;;;;;2617076;54;19946;-74